createdAt,value
2023-11-27T00:00:40.401Z,97883.53
2023-11-27T00:03:07.755Z,97881.66
2023-11-27T00:05:34.487Z,97881.97
2023-11-27T00:08:01.001Z,97887.91
2023-11-27T00:10:27.837Z,97881.97
2023-11-27T00:12:54.526Z,97854.75
2023-11-27T00:15:21.058Z,97840.91
2023-11-27T00:17:49.411Z,97824.31
2023-11-27T00:20:16.616Z,97810.66
2023-11-27T00:22:43.152Z,97801.41
2023-11-27T00:25:09.648Z,97792.13
2023-11-27T00:27:36.259Z,97783.94
2023-11-27T00:30:02.931Z,97774.69
2023-11-27T00:32:32.594Z,97753.41
2023-11-27T00:34:59.214Z,97756.72
2023-11-27T00:37:25.718Z,97739.28
2023-11-27T00:39:52.212Z,97729.50
2023-11-27T00:42:18.818Z,97739.81
2023-11-27T00:44:45.653Z,97719.69
2023-11-27T00:47:12.159Z,97711.50
2023-11-27T00:49:38.782Z,97693.56
2023-11-27T00:52:05.360Z,97686.50
2023-11-27T00:54:31.851Z,97679.13
2023-11-27T00:56:58.510Z,97666.88
2023-11-27T00:59:25.062Z,97657.38
2023-11-27T01:01:51.572Z,97637.53
2023-11-27T01:04:18.232Z,97641.88
2023-11-27T01:06:44.814Z,97635.09
2023-11-27T01:09:11.349Z,97613.59
2023-11-27T01:11:37.957Z,97619.56
2023-11-27T01:14:04.464Z,97621.22
2023-11-27T01:16:30.985Z,97610.91
2023-11-27T01:18:57.629Z,97596.19
2023-11-27T01:21:24.128Z,97586.41
2023-11-27T01:23:50.645Z,97577.16
2023-11-27T01:26:17.188Z,97560.81
2023-11-27T01:28:43.628Z,97553.22
2023-11-27T01:31:10.093Z,97540.72
2023-11-27T01:33:36.714Z,97538.53
2023-11-27T01:36:03.283Z,97521.38
2023-11-27T01:38:29.804Z,97524.38
2023-11-27T01:40:56.369Z,97528.72
2023-11-27T01:43:22.957Z,97543.97
2023-11-27T01:45:49.455Z,97528.19
2023-11-27T01:48:16.104Z,97521.09
2023-11-27T01:50:42.695Z,97526.53
2023-11-27T01:53:09.217Z,97516.44
2023-11-27T01:55:35.787Z,97509.63
2023-11-27T01:58:02.469Z,97500.34
2023-11-27T02:00:29.000Z,97494.88
2023-11-27T02:02:55.631Z,97493.81
2023-11-27T02:05:22.153Z,97481.25
2023-11-27T02:07:48.712Z,97471.94
2023-11-27T02:10:15.318Z,97463.97
2023-11-27T02:12:42.000Z,97462.03
2023-11-27T02:15:08.782Z,97468.03
2023-11-27T02:17:38.186Z,97467.97
2023-11-27T02:20:04.904Z,97450.19
2023-11-27T02:22:51.372Z,97461.81
2023-11-27T02:25:17.819Z,97450.03
2023-11-27T02:27:45.369Z,97429.75
2023-11-27T02:30:11.908Z,97417.97
2023-11-27T02:32:38.680Z,97404.25
2023-11-27T02:35:05.810Z,97403.09
2023-11-27T02:37:32.429Z,97369.75
2023-11-27T02:39:59.153Z,97372.44
2023-11-27T02:42:26.160Z,97384.88
2023-11-27T02:44:52.736Z,97369.31
2023-11-27T02:47:19.249Z,97358.06
2023-11-27T02:49:45.709Z,97354.16
2023-11-27T02:52:12.248Z,97334.16
2023-11-27T02:54:38.923Z,97335.53
2023-11-27T02:57:05.384Z,97322.03
2023-11-27T02:59:32.199Z,97316.81
2023-11-27T03:01:58.829Z,97321.09
2023-11-27T03:04:25.433Z,97316.38
2023-11-27T03:06:52.167Z,97308.34
2023-11-27T03:09:19.213Z,97298.66
2023-11-27T03:11:45.730Z,97287.16
2023-11-27T03:14:12.331Z,97276.38
2023-11-27T03:16:38.878Z,97266.47
2023-11-27T03:19:05.440Z,97237.22
2023-11-27T03:21:32.027Z,97219.91
2023-11-27T03:23:58.586Z,97199.06
2023-11-27T03:26:25.085Z,97206.38
2023-11-27T03:28:51.738Z,97212.06
2023-11-27T03:31:18.424Z,97232.94
2023-11-27T03:33:45.009Z,97318.50
2023-11-27T03:36:11.601Z,97340.25
2023-11-27T03:38:38.116Z,97317.69
2023-11-27T03:41:04.588Z,97316.41
2023-11-27T03:43:31.219Z,97316.84
2023-11-27T03:45:57.851Z,97301.94
2023-11-27T03:48:24.344Z,97296.59
2023-11-27T03:50:50.898Z,97273.28
2023-11-27T03:53:17.409Z,97263.34
2023-11-27T03:55:43.877Z,97265.41
2023-11-27T03:58:10.526Z,97242.28
2023-11-27T04:00:37.066Z,97221.38
2023-11-27T04:03:03.557Z,97215.28
2023-11-27T04:05:30.140Z,97211.22
2023-11-27T04:07:56.595Z,97237.31
2023-11-27T04:10:23.100Z,97277.81
2023-11-27T04:12:49.840Z,97268.38
2023-11-27T04:15:16.418Z,97248.97
2023-11-27T04:17:42.930Z,97244.50
2023-11-27T04:20:09.536Z,97241.03
2023-11-27T04:22:36.040Z,97241.25
2023-11-27T04:25:02.547Z,97226.22
2023-11-27T04:27:31.107Z,97231.09
2023-11-27T04:29:57.640Z,97218.69
2023-11-27T04:32:24.161Z,97212.41
2023-11-27T04:34:50.765Z,97207.91
2023-11-27T04:37:17.267Z,97199.59
2023-11-27T04:39:43.756Z,97194.09
2023-11-27T04:42:10.273Z,97198.66
2023-11-27T04:44:36.737Z,97206.25
2023-11-27T04:47:03.350Z,97208.69
2023-11-27T04:49:30.056Z,97219.06
2023-11-27T04:51:56.580Z,97214.09
2023-11-27T04:54:23.053Z,97217.31
2023-11-27T04:56:49.640Z,97206.22
2023-11-27T04:59:16.181Z,97206.22
2023-11-27T05:01:42.734Z,97212.72
2023-11-27T05:04:09.478Z,97209.34
2023-11-27T05:06:36.044Z,97216.47
2023-11-27T05:09:02.529Z,97200.50
2023-11-27T05:11:29.202Z,97191.13
2023-11-27T05:13:55.746Z,97182.31
2023-11-27T05:16:22.500Z,97190.00
2023-11-27T05:18:49.201Z,97197.84
2023-11-27T05:21:15.755Z,97206.25
2023-11-27T05:23:42.325Z,97201.47
2023-11-27T05:26:09.247Z,97196.75
2023-11-27T05:28:35.756Z,97186.28
2023-11-27T05:31:02.330Z,97196.16
2023-11-27T05:33:30.023Z,97172.56
2023-11-27T05:35:56.632Z,97168.69
2023-11-27T05:38:23.124Z,97175.38
2023-11-27T05:40:49.783Z,97173.13
2023-11-27T05:43:16.321Z,97173.13
2023-11-27T05:45:42.830Z,97168.94
2023-11-27T05:48:09.442Z,97152.97
2023-11-27T05:50:35.994Z,97152.81
2023-11-27T05:53:02.460Z,97158.19
2023-11-27T05:55:29.029Z,97176.28
2023-11-27T05:57:55.555Z,97158.69
2023-11-27T06:00:22.087Z,97158.81
2023-11-27T06:02:48.843Z,97163.19
2023-11-27T06:05:15.326Z,97175.78
2023-11-27T06:07:41.831Z,97168.34
2023-11-27T06:10:08.589Z,97168.03
2023-11-27T06:12:35.165Z,97172.25
2023-11-27T06:15:01.700Z,97156.56
2023-11-27T06:17:28.320Z,97155.94
2023-11-27T06:19:54.806Z,97163.03
2023-11-27T06:22:21.407Z,97187.44
2023-11-27T06:24:47.955Z,97188.78
2023-11-27T06:27:14.482Z,97179.38
2023-11-27T06:29:40.958Z,97174.41
2023-11-27T06:32:07.646Z,97165.16
2023-11-27T06:34:34.193Z,97171.16
2023-11-27T06:37:00.901Z,97160.66
2023-11-27T06:39:27.527Z,97161.66
2023-11-27T06:41:53.977Z,97155.03
2023-11-27T06:44:20.682Z,97146.28
2023-11-27T06:46:47.374Z,97144.22
2023-11-27T06:49:14.050Z,97138.41
2023-11-27T06:51:40.611Z,97134.22
2023-11-27T06:54:07.188Z,97141.34
2023-11-27T06:56:33.640Z,97130.16
2023-11-27T06:59:00.905Z,97134.06
2023-11-27T07:01:27.514Z,97137.28
2023-11-27T07:03:54.519Z,97114.19
2023-11-27T07:06:21.699Z,97132.78
2023-11-27T07:08:48.284Z,97134.41
2023-11-27T07:11:14.740Z,97141.19
2023-11-27T07:13:41.426Z,97134.41
2023-11-27T07:16:08.052Z,97135.38
2023-11-27T07:18:34.913Z,97140.25
2023-11-27T07:21:01.770Z,97133.97
2023-11-27T07:23:28.446Z,97143.50
2023-11-27T07:25:55.008Z,97130.88
2023-11-27T07:28:21.510Z,97137.19
2023-11-27T07:30:48.115Z,97138.81
2023-11-27T07:33:14.645Z,97147.34
2023-11-27T07:35:41.102Z,97143.66
2023-11-27T07:38:07.654Z,97146.72
2023-11-27T07:40:34.234Z,97136.88
2023-11-27T07:43:00.855Z,97126.53
2023-11-27T07:45:27.401Z,97109.75
2023-11-27T07:47:53.896Z,97110.84
2023-11-27T07:50:20.448Z,97126.72
2023-11-27T07:52:47.057Z,97141.59
2023-11-27T07:55:13.566Z,97151.13
2023-11-27T07:57:40.193Z,97151.81
2023-11-27T08:00:06.794Z,97135.81
2023-11-27T08:02:33.325Z,97132.91
2023-11-27T08:04:59.865Z,97126.13
2023-11-27T08:07:26.506Z,97135.50
2023-11-27T08:09:53.028Z,97115.13
2023-11-27T08:12:20.200Z,97121.09
2023-11-27T08:14:46.760Z,97112.88
2023-11-27T08:17:13.230Z,97114.66
2023-11-27T08:19:39.757Z,97096.72
2023-11-27T08:22:06.298Z,97111.59
2023-11-27T08:24:32.824Z,97135.22
2023-11-27T08:26:59.289Z,97130.38
2023-11-27T08:29:25.926Z,97086.72
2023-11-27T08:31:52.476Z,97059.88
2023-11-27T08:34:19.064Z,97071.84
2023-11-27T08:36:46.214Z,97072.66
2023-11-27T08:39:12.856Z,97076.19
2023-11-27T08:41:39.305Z,97057.91
2023-11-27T08:44:05.897Z,97060.03
2023-11-27T08:46:32.478Z,97069.91
2023-11-27T08:48:58.992Z,97071.50
2023-11-27T08:51:25.578Z,97081.22
2023-11-27T08:53:52.229Z,97108.41
2023-11-27T08:56:18.748Z,97083.00
2023-11-27T08:58:45.293Z,97046.13
2023-11-27T09:01:11.786Z,97080.56
2023-11-27T09:03:38.320Z,97081.53
2023-11-27T09:06:04.880Z,97099.34
2023-11-27T09:08:31.366Z,97106.44
2023-11-27T09:10:57.860Z,97099.81
2023-11-27T09:13:24.465Z,97098.53
2023-11-27T09:15:53.393Z,97102.41
2023-11-27T09:18:19.929Z,97103.91
2023-11-27T09:20:46.493Z,97093.19
2023-11-27T09:23:13.185Z,97092.38
2023-11-27T09:25:39.872Z,97090.44
2023-11-27T09:28:06.475Z,97093.88
2023-11-27T09:30:32.977Z,97078.63
2023-11-27T09:32:59.664Z,97062.63
2023-11-27T09:35:26.266Z,97069.25
2023-11-27T09:37:52.786Z,97066.81
2023-11-27T09:40:19.487Z,97068.75
2023-11-27T09:42:48.261Z,97069.91
2023-11-27T09:45:16.287Z,97084.78
2023-11-27T09:47:43.161Z,97088.66
2023-11-27T09:50:09.773Z,97099.03
2023-11-27T09:52:36.299Z,97094.16
2023-11-27T09:55:02.851Z,97098.56
2023-11-27T09:57:33.041Z,97088.81
2023-11-27T10:00:00.255Z,97082.50
2023-11-27T10:02:27.058Z,97073.78
2023-11-27T10:04:53.762Z,97072.81
2023-11-27T10:07:20.424Z,97074.09
2023-11-27T10:09:46.947Z,97080.56
2023-11-27T10:12:13.544Z,97092.22
2023-11-27T10:14:40.117Z,97074.25
2023-11-27T10:17:06.671Z,97072.81
2023-11-27T10:19:33.364Z,97090.44
2023-11-27T10:22:00.029Z,97081.88
2023-11-27T10:24:26.546Z,97063.88
2023-11-27T10:26:53.078Z,97066.47
2023-11-27T10:29:19.598Z,97056.28
2023-11-27T10:31:46.141Z,97042.97
2023-11-27T10:34:12.830Z,97051.22
2023-11-27T10:36:39.382Z,97052.19
2023-11-27T10:39:05.860Z,97055.28
2023-11-27T10:41:32.436Z,97042.94
2023-11-27T10:43:59.120Z,97043.28
2023-11-27T10:46:25.739Z,97042.63
2023-11-27T10:48:52.339Z,97049.28
2023-11-27T10:51:18.812Z,97037.28
2023-11-27T10:53:45.321Z,97051.84
2023-11-27T10:56:12.094Z,97045.50
2023-11-27T10:58:38.572Z,97031.22
2023-11-27T11:01:05.041Z,97041.06
2023-11-27T11:03:31.593Z,97045.44
2023-11-27T11:05:58.063Z,97046.41
2023-11-27T11:08:24.695Z,97038.63
2023-11-27T11:10:51.374Z,97052.22
2023-11-27T11:13:17.864Z,97045.91
2023-11-27T11:15:44.418Z,97035.22
2023-11-27T11:18:11.166Z,97028.84
2023-11-27T11:20:37.788Z,97024.81
2023-11-27T11:23:04.261Z,97044.56
2023-11-27T11:25:30.947Z,97037.47
2023-11-27T11:27:57.486Z,97034.38
2023-11-27T11:30:23.925Z,97029.19
2023-11-27T11:32:50.528Z,97023.88
2023-11-27T11:35:17.011Z,97018.56
2023-11-27T11:37:43.525Z,97037.22
2023-11-27T11:40:10.253Z,97041.28
2023-11-27T11:42:36.837Z,97042.41
2023-11-27T11:45:03.318Z,97037.06
2023-11-27T11:47:33.075Z,97040.31
2023-11-27T11:49:59.660Z,97027.69
2023-11-27T11:52:26.104Z,97028.31
2023-11-27T11:54:52.730Z,97031.41
2023-11-27T11:57:19.181Z,97040.00
2023-11-27T11:59:45.643Z,97040.81
2023-11-27T12:02:12.244Z,97028.97
2023-11-27T12:04:39.224Z,97021.72
2023-11-27T12:07:05.818Z,97025.31
2023-11-27T12:09:32.478Z,97046.69
2023-11-27T12:11:59.017Z,97034.53
2023-11-27T12:14:25.529Z,97049.13
2023-11-27T12:16:52.123Z,97055.78
2023-11-27T12:19:18.669Z,97042.66
2023-11-27T12:21:45.185Z,97046.69
2023-11-27T12:24:11.744Z,97062.41
2023-11-27T12:26:38.237Z,97053.03
2023-11-27T12:29:04.798Z,97050.63
2023-11-27T12:31:31.417Z,97053.03
2023-11-27T12:33:57.921Z,97042.97
2023-11-27T12:36:24.431Z,97045.25
2023-11-27T12:38:51.066Z,97053.03
2023-11-27T12:41:17.539Z,97055.31
2023-11-27T12:43:44.251Z,97053.03
2023-11-27T12:46:10.968Z,97048.19
2023-11-27T12:48:37.503Z,97046.69
2023-11-27T12:51:03.976Z,97049.31
2023-11-27T12:53:30.646Z,97051.88
2023-11-27T12:55:57.300Z,97044.28
2023-11-27T12:58:23.893Z,97050.44
2023-11-27T13:00:50.524Z,97041.41
2023-11-27T13:03:17.093Z,97044.63
2023-11-27T13:05:43.626Z,97039.13
2023-11-27T13:08:10.217Z,97026.63
2023-11-27T13:10:36.744Z,97017.75
2023-11-27T13:13:03.310Z,97003.16
2023-11-27T13:15:29.979Z,97012.41
2023-11-27T13:17:56.609Z,97004.78
2023-11-27T13:20:23.315Z,97001.41
2023-11-27T13:22:49.894Z,97001.09
2023-11-27T13:25:16.586Z,97007.06
2023-11-27T13:27:43.121Z,97012.25
2023-11-27T13:30:09.713Z,96996.03
2023-11-27T13:32:36.248Z,97003.84
2023-11-27T13:35:02.729Z,97011.31
2023-11-27T13:37:30.843Z,97011.44
2023-11-27T13:39:57.572Z,97020.53
2023-11-27T13:42:24.376Z,97024.56
2023-11-27T13:44:50.932Z,97024.09
2023-11-27T13:47:17.443Z,97017.44
2023-11-27T13:49:43.994Z,97024.25
2023-11-27T13:52:15.593Z,97031.53
2023-11-27T13:54:44.716Z,97026.31
2023-11-27T13:57:11.288Z,97030.88
2023-11-27T13:59:37.747Z,97023.09
2023-11-27T14:02:04.329Z,97021.16
2023-11-27T14:04:31.212Z,97022.31
2023-11-27T14:06:57.789Z,97023.91
2023-11-27T14:09:24.299Z,97028.44
2023-11-27T14:11:50.877Z,97022.94
2023-11-27T14:14:17.437Z,97052.88
2023-11-27T14:16:44.877Z,97042.03
2023-11-27T14:19:12.754Z,97047.69
2023-11-27T14:21:39.771Z,97051.78
2023-11-27T14:24:06.311Z,97045.31
2023-11-27T14:26:34.853Z,97040.94
2023-11-27T14:29:01.557Z,97053.41
2023-11-27T14:31:28.122Z,97058.56
2023-11-27T14:33:54.738Z,97047.41
2023-11-27T14:36:21.358Z,97050.31
2023-11-27T14:38:48.069Z,97044.63
2023-11-27T14:41:14.785Z,97055.94
2023-11-27T14:43:41.323Z,97042.38
2023-11-27T14:46:08.077Z,97044.31
2023-11-27T14:48:34.778Z,97043.00
2023-11-27T14:51:01.539Z,97044.78
2023-11-27T14:53:28.249Z,97040.56
2023-11-27T14:55:54.898Z,97036.50
2023-11-27T14:58:23.768Z,97056.25
2023-11-27T15:00:50.285Z,97045.25
2023-11-27T15:03:17.003Z,97053.00
2023-11-27T15:05:44.319Z,97045.88
2023-11-27T15:08:11.595Z,97050.41
2023-11-27T15:10:38.177Z,97060.28
2023-11-27T15:13:04.678Z,97049.28
2023-11-27T15:15:31.295Z,97061.56
2023-11-27T15:17:58.013Z,97066.88
2023-11-27T15:20:24.714Z,97063.66
2023-11-27T15:22:51.282Z,97053.81
2023-11-27T15:25:18.023Z,97065.91
2023-11-27T15:27:44.717Z,97055.41
2023-11-27T15:30:11.260Z,97067.53
2023-11-27T15:32:37.810Z,97073.84
2023-11-27T15:35:04.406Z,97069.16
2023-11-27T15:37:31.784Z,97073.19
2023-11-27T15:39:58.421Z,97064.13
2023-11-27T15:42:25.159Z,97065.78
2023-11-27T15:44:51.690Z,97071.78
2023-11-27T15:47:18.436Z,97061.75
2023-11-27T15:49:45.062Z,97060.13
2023-11-27T15:52:11.645Z,97056.88
2023-11-27T15:54:38.311Z,97055.28
2023-11-27T15:57:04.801Z,97045.25
2023-11-27T15:59:31.489Z,97057.22
2023-11-27T16:01:58.202Z,97053.53
2023-11-27T16:04:24.811Z,97047.22
2023-11-27T16:06:51.358Z,97048.84
2023-11-27T16:09:18.140Z,97045.44
2023-11-27T16:11:44.795Z,97055.59
2023-11-27T16:14:11.348Z,97061.09
2023-11-27T16:16:37.932Z,97072.25
2023-11-27T16:19:04.443Z,97054.13
2023-11-27T16:21:31.037Z,97067.53
2023-11-27T16:23:57.624Z,97049.13
2023-11-27T16:26:24.092Z,97056.53
2023-11-27T16:28:50.583Z,97062.69
2023-11-27T16:31:17.302Z,97048.44
2023-11-27T16:33:43.850Z,97049.25
2023-11-27T16:36:10.394Z,97067.19
2023-11-27T16:38:37.130Z,97057.34
2023-11-27T16:41:03.623Z,97074.28
2023-11-27T16:43:30.182Z,97070.25
2023-11-27T16:45:56.816Z,97071.06
2023-11-27T16:48:23.383Z,97087.56
2023-11-27T16:50:49.868Z,97093.69
2023-11-27T16:53:16.417Z,97080.56
2023-11-27T16:55:42.937Z,97091.56
2023-11-27T16:58:09.576Z,97090.94
2023-11-27T17:00:36.287Z,97099.81
2023-11-27T17:03:03.354Z,97089.63
2023-11-27T17:05:30.836Z,97119.84
2023-11-27T17:07:57.503Z,97094.31
2023-11-27T17:10:24.146Z,97098.53
2023-11-27T17:12:50.694Z,97099.81
2023-11-27T17:15:17.273Z,97098.81
2023-11-27T17:17:43.899Z,97088.66
2023-11-27T17:20:10.495Z,97104.16
2023-11-27T17:22:37.130Z,97099.63
2023-11-27T17:25:03.674Z,97104.50
2023-11-27T17:27:30.353Z,97115.31
2023-11-27T17:29:57.017Z,97122.09
2023-11-27T17:32:23.553Z,97124.84
2023-11-27T17:34:50.078Z,97137.25
2023-11-27T17:37:16.673Z,97147.94
2023-11-27T17:39:43.187Z,97143.06
2023-11-27T17:42:09.656Z,97153.06
2023-11-27T17:44:36.213Z,97143.50
2023-11-27T17:47:02.755Z,97161.44
2023-11-27T17:49:29.356Z,97172.41
2023-11-27T17:51:55.994Z,97173.03
2023-11-27T17:54:22.486Z,97153.31
2023-11-27T17:56:49.081Z,97151.06
2023-11-27T17:59:15.683Z,97168.88
2023-11-27T18:01:42.411Z,97161.06
2023-11-27T18:04:08.946Z,97183.03
2023-11-27T18:06:35.543Z,97168.47
2023-11-27T18:09:02.012Z,97168.81
2023-11-27T18:11:28.685Z,97164.94
2023-11-27T18:13:55.247Z,97166.69
2023-11-27T18:16:21.818Z,97161.22
2023-11-27T18:18:48.470Z,97170.06
2023-11-27T18:21:15.112Z,97169.06
2023-11-27T18:23:41.628Z,97180.84
2023-11-27T18:26:08.154Z,97197.16
2023-11-27T18:28:34.798Z,97185.16
2023-11-27T18:31:01.335Z,97199.19
2023-11-27T18:33:27.928Z,97215.28
2023-11-27T18:35:54.505Z,97247.72
2023-11-27T18:38:21.021Z,97216.53
2023-11-27T18:40:47.652Z,97230.06
2023-11-27T18:43:14.381Z,97228.53
2023-11-27T18:45:40.919Z,97228.53
2023-11-27T18:48:07.424Z,97224.19
2023-11-27T18:50:34.047Z,97238.41
2023-11-27T18:53:00.600Z,97249.50
2023-11-27T18:55:27.139Z,97252.88
2023-11-27T18:57:53.727Z,97258.66
2023-11-27T19:00:20.241Z,97272.69
2023-11-27T19:02:46.937Z,97285.09
2023-11-27T19:05:14.146Z,97266.50
2023-11-27T19:07:41.113Z,97267.63
2023-11-27T19:10:07.626Z,97277.00
2023-11-27T19:12:34.199Z,97290.38
2023-11-27T19:15:00.745Z,97287.72
2023-11-27T19:17:27.477Z,97291.63
2023-11-27T19:19:54.222Z,97283.41
2023-11-27T19:22:20.804Z,97294.13
2023-11-27T19:24:47.465Z,97326.38
2023-11-27T19:27:14.128Z,97300.06
2023-11-27T19:29:40.643Z,97305.00
2023-11-27T19:32:07.238Z,97298.53
2023-11-27T19:34:33.999Z,97313.56
2023-11-27T19:37:00.619Z,97321.69
2023-11-27T19:39:27.113Z,97312.47
2023-11-27T19:41:53.791Z,97334.47
2023-11-27T19:44:20.598Z,97339.53
2023-11-27T19:46:47.222Z,97351.72
2023-11-27T19:49:14.173Z,97329.81
2023-11-27T19:51:40.823Z,97337.00
2023-11-27T19:54:07.339Z,97345.84
2023-11-27T19:56:33.944Z,97335.97
2023-11-27T19:59:00.480Z,97348.66
2023-11-27T20:01:27.146Z,97345.41
2023-11-27T20:03:53.863Z,97359.09
2023-11-27T20:06:20.372Z,97362.16
2023-11-27T20:08:46.911Z,97367.94
2023-11-27T20:11:13.469Z,97394.72
2023-11-27T20:13:39.934Z,97394.81
2023-11-27T20:16:06.455Z,97380.00
2023-11-27T20:18:33.119Z,97386.59
2023-11-27T20:20:59.649Z,97393.72
2023-11-27T20:23:26.161Z,97395.72
2023-11-27T20:25:52.852Z,97391.06
2023-11-27T20:28:19.395Z,97389.44
2023-11-27T20:30:45.879Z,97411.38
2023-11-27T20:33:12.520Z,97398.78
2023-11-27T20:35:39.081Z,97407.28
2023-11-27T20:38:05.617Z,97419.06
2023-11-27T20:40:32.313Z,97402.63
2023-11-27T20:42:58.806Z,97418.84
2023-11-27T20:45:25.339Z,97432.22
2023-11-27T20:47:51.968Z,97424.53
2023-11-27T20:50:18.515Z,97416.84
2023-11-27T20:52:45.097Z,97412.56
2023-11-27T20:55:11.706Z,97418.03
2023-11-27T20:57:38.356Z,97420.91
2023-11-27T21:00:04.903Z,97420.91
2023-11-27T21:02:31.762Z,97434.69
2023-11-27T21:04:58.407Z,97433.59
2023-11-27T21:07:24.956Z,97440.16
2023-11-27T21:09:51.641Z,97459.34
2023-11-27T21:12:19.490Z,97470.31
2023-11-27T21:14:45.951Z,97455.06
2023-11-27T21:17:12.515Z,97461.94
2023-11-27T21:19:39.140Z,97473.13
2023-11-27T21:22:05.658Z,97479.19
2023-11-27T21:24:32.275Z,97487.41
2023-11-27T21:27:00.246Z,97483.63
2023-11-27T21:29:28.149Z,97500.72
2023-11-27T21:31:54.784Z,97502.66
2023-11-27T21:34:21.337Z,97500.22
2023-11-27T21:36:47.872Z,97503.25
2023-11-27T21:39:14.558Z,97493.09
2023-11-27T21:41:41.140Z,97494.75
2023-11-27T21:44:07.661Z,97502.41
2023-11-27T21:46:34.351Z,97519.91
2023-11-27T21:49:00.876Z,97507.91
2023-11-27T21:51:27.405Z,97503.84
2023-11-27T21:53:53.961Z,97514.47
2023-11-27T21:56:20.448Z,97517.22
2023-11-27T21:58:46.928Z,97530.41
2023-11-27T22:01:17.446Z,97518.63
2023-11-27T22:03:45.244Z,97521.09
2023-11-27T22:06:11.912Z,97527.34
2023-11-27T22:08:38.465Z,97535.34
2023-11-27T22:11:04.934Z,97531.78
2023-11-27T22:13:31.520Z,97543.59
2023-11-27T22:15:58.176Z,97553.78
2023-11-27T22:18:24.704Z,97545.91
2023-11-27T22:20:51.206Z,97557.91
2023-11-27T22:23:17.805Z,97551.38
2023-11-27T22:25:44.325Z,97563.38
2023-11-27T22:28:10.876Z,97555.81
2023-11-27T22:30:37.423Z,97566.53
2023-11-27T22:33:03.995Z,97564.06
2023-11-27T22:35:30.553Z,97564.06
2023-11-27T22:37:57.138Z,97585.97
2023-11-27T22:40:23.845Z,97584.88
2023-11-27T22:42:50.380Z,97599.94
2023-11-27T22:45:16.957Z,97594.56
2023-11-27T22:47:43.562Z,97600.66
2023-11-27T22:50:10.199Z,97602.88
2023-11-27T22:52:36.870Z,97613.56
2023-11-27T22:55:03.378Z,97618.22
2023-11-27T22:57:32.287Z,97612.81
2023-11-27T22:59:58.963Z,97629.84
2023-11-27T23:02:25.648Z,97636.13
2023-11-27T23:04:52.217Z,97634.22
2023-11-27T23:07:19.042Z,97646.25
2023-11-27T23:09:45.570Z,97649.91
2023-11-27T23:12:12.168Z,97656.44
2023-11-27T23:14:38.768Z,97664.31
2023-11-27T23:17:05.407Z,97673.63
2023-11-27T23:19:31.985Z,97655.09
2023-11-27T23:21:58.583Z,97674.81
2023-11-27T23:24:27.149Z,97682.47
2023-11-27T23:26:54.181Z,97685.75
2023-11-27T23:29:20.716Z,97684.44
2023-11-27T23:31:47.248Z,97673.25
2023-11-27T23:34:14.032Z,97692.44
2023-11-27T23:36:40.751Z,97685.31
2023-11-27T23:39:07.229Z,97694.06
2023-11-27T23:41:33.713Z,97691.31
2023-11-27T23:44:00.325Z,97707.47
2023-11-27T23:46:26.907Z,97699.50
2023-11-27T23:48:54.228Z,97700.56
2023-11-27T23:51:21.102Z,97702.22
2023-11-27T23:53:47.599Z,97710.47
2023-11-27T23:56:14.162Z,97721.41
2023-11-27T23:58:40.807Z,97727.41
